Danville, Virginia
Current Conditions -  °F | °C
As of 9:53 AM on Sunday 21 Dec 2014 (Local Time) from KDAN Reporting Station
Overcast Overcast  
Wind Chill: 37°   Ceiling: 5500
Heat Index: 40°   Visibility: 10mi
Dew Point: 34°   Wind: 5mph
Humidity: 79%   Direction: 80°E
Pressure: 30.32"   Gusts: NA
Location:  36.59°N, 79.42°W
Report Text: KDAN 211453Z AUTO 08004KT 10SM OVC055 04/01 A3032 RMK AO2 SLP265 T00440011 51009
Loading
Personal Weather Stations






























Interactive Weather Map New forecast layout! Learn more

10-Day Weather Forecast

Advertisements
Track Severe Weather on mobile